sensor_id;sensor_type;location;lat;lon;timestamp;pressure;altitude;pressure_sealevel;temperature;humidity
40788;BME280;26497;52.494;7.546;2023-02-15T00:00:05;102317.09;;;7.23;67.29
40788;BME280;26497;52.494;7.546;2023-02-15T00:02:33;102314.25;;;7.18;66.63
40788;BME280;26497;52.494;7.546;2023-02-15T00:05:02;102314.78;;;7.10;66.62
40788;BME280;26497;52.494;7.546;2023-02-15T00:07:29;102309.53;;;7.10;66.68
40788;BME280;26497;52.494;7.546;2023-02-15T00:09:56;102310.00;;;6.99;66.68
40788;BME280;26497;52.494;7.546;2023-02-15T00:12:23;102309.94;;;6.98;66.75
40788;BME280;26497;52.494;7.546;2023-02-15T00:14:51;102311.47;;;6.92;66.72
40788;BME280;26497;52.494;7.546;2023-02-15T00:17:18;102298.44;;;6.94;66.62
40788;BME280;26497;52.494;7.546;2023-02-15T00:19:45;102299.84;;;6.86;66.52
40788;BME280;26497;52.494;7.546;2023-02-15T00:22:13;102294.22;;;6.76;66.57
40788;BME280;26497;52.494;7.546;2023-02-15T00:24:40;102295.03;;;6.75;66.56
40788;BME280;26497;52.494;7.546;2023-02-15T00:27:07;102299.13;;;6.69;66.57
40788;BME280;26497;52.494;7.546;2023-02-15T00:29:34;102296.75;;;6.75;66.44
40788;BME280;26497;52.494;7.546;2023-02-15T00:32:02;102294.34;;;6.79;66.72
40788;BME280;26497;52.494;7.546;2023-02-15T00:34:29;102293.19;;;6.94;66.75
40788;BME280;26497;52.494;7.546;2023-02-15T00:36:56;102292.94;;;6.88;66.34
40788;BME280;26497;52.494;7.546;2023-02-15T00:39:24;102286.03;;;6.90;66.37
40788;BME280;26497;52.494;7.546;2023-02-15T00:41:52;102282.69;;;6.94;66.50
40788;BME280;26497;52.494;7.546;2023-02-15T00:44:20;102276.09;;;6.83;66.27
40788;BME280;26497;52.494;7.546;2023-02-15T00:46:48;102281.19;;;7.01;65.56
40788;BME280;26497;52.494;7.546;2023-02-15T00:49:21;102279.34;;;6.98;65.02
40788;BME280;26497;52.494;7.546;2023-02-15T00:51:52;102280.34;;;6.58;65.38
40788;BME280;26497;52.494;7.546;2023-02-15T00:54:20;102281.03;;;6.32;65.77
40788;BME280;26497;52.494;7.546;2023-02-15T00:56:48;102279.22;;;6.31;65.79
40788;BME280;26497;52.494;7.546;2023-02-15T00:59:18;102278.03;;;6.44;65.73
40788;BME280;26497;52.494;7.546;2023-02-15T01:01:46;102268.88;;;6.34;65.91
40788;BME280;26497;52.494;7.546;2023-02-15T01:04:13;102272.38;;;6.35;66.11
40788;BME280;26497;52.494;7.546;2023-02-15T01:06:40;102273.09;;;6.31;66.01
40788;BME280;26497;52.494;7.546;2023-02-15T01:09:07;102267.97;;;6.34;66.18
40788;BME280;26497;52.494;7.546;2023-02-15T01:11:35;102271.44;;;6.33;66.17
40788;BME280;26497;52.494;7.546;2023-02-15T01:14:03;102280.50;;;6.41;66.16
40788;BME280;26497;52.494;7.546;2023-02-15T01:16:31;102275.84;;;6.34;66.10
40788;BME280;26497;52.494;7.546;2023-02-15T01:19:01;102268.50;;;6.25;66.10
40788;BME280;26497;52.494;7.546;2023-02-15T01:21:29;102276.69;;;6.13;66.29
40788;BME280;26497;52.494;7.546;2023-02-15T01:23:59;102266.78;;;6.06;66.29
40788;BME280;26497;52.494;7.546;2023-02-15T01:26:27;102263.59;;;6.13;66.48
40788;BME280;26497;52.494;7.546;2023-02-15T01:28:57;102260.00;;;6.11;66.39
40788;BME280;26497;52.494;7.546;2023-02-15T01:31:26;102255.53;;;6.09;66.72
40788;BME280;26497;52.494;7.546;2023-02-15T01:33:53;102258.09;;;6.07;66.73
40788;BME280;26497;52.494;7.546;2023-02-15T01:36:21;102250.34;;;6.10;67.10
40788;BME280;26497;52.494;7.546;2023-02-15T01:38:48;102250.31;;;6.09;66.94
40788;BME280;26497;52.494;7.546;2023-02-15T01:41:15;102245.00;;;6.07;66.86
40788;BME280;26497;52.494;7.546;2023-02-15T01:43:52;102241.28;;;6.02;66.95
40788;BME280;26497;52.494;7.546;2023-02-15T01:46:26;102230.78;;;6.02;67.19
40788;BME280;26497;52.494;7.546;2023-02-15T01:49:00;102235.03;;;6.00;67.10
40788;BME280;26497;52.494;7.546;2023-02-15T01:51:31;102234.06;;;5.98;66.67
40788;BME280;26497;52.494;7.546;2023-02-15T01:54:03;102233.88;;;5.93;66.43
40788;BME280;26497;52.494;7.546;2023-02-15T01:56:36;102232.28;;;5.97;67.02
40788;BME280;26497;52.494;7.546;2023-02-15T01:59:08;102235.63;;;5.93;66.63
40788;BME280;26497;52.494;7.546;2023-02-15T02:01:37;102235.00;;;5.79;66.39
40788;BME280;26497;52.494;7.546;2023-02-15T02:04:11;102225.06;;;5.71;66.26
40788;BME280;26497;52.494;7.546;2023-02-15T02:06:40;102230.13;;;5.67;66.24
40788;BME280;26497;52.494;7.546;2023-02-15T02:09:07;102237.44;;;5.74;66.30
40788;BME280;26497;52.494;7.546;2023-02-15T02:11:36;102233.97;;;5.75;66.29
40788;BME280;26497;52.494;7.546;2023-02-15T02:14:03;102226.13;;;5.75;65.97
40788;BME280;26497;52.494;7.546;2023-02-15T02:16:40;102228.59;;;5.72;66.40
40788;BME280;26497;52.494;7.546;2023-02-15T02:19:45;102227.50;;;5.67;66.51
40788;BME280;26497;52.494;7.546;2023-02-15T02:26:47;102221.22;;;5.83;66.89
40788;BME280;26497;52.494;7.546;2023-02-15T02:35:33;102219.56;;;5.65;66.86
40788;BME280;26497;52.494;7.546;2023-02-15T02:38:10;102214.00;;;5.57;66.86
40788;BME280;26497;52.494;7.546;2023-02-15T02:40:48;102211.94;;;5.70;66.56
40788;BME280;26497;52.494;7.546;2023-02-15T02:43:25;102214.75;;;5.55;66.25
40788;BME280;26497;52.494;7.546;2023-02-15T02:45:59;102209.91;;;5.44;66.28
40788;BME280;26497;52.494;7.546;2023-02-15T02:48:33;102201.72;;;5.37;66.02
40788;BME280;26497;52.494;7.546;2023-02-15T02:51:01;102199.84;;;5.34;66.13
40788;BME280;26497;52.494;7.546;2023-02-15T02:53:30;102198.63;;;5.26;66.32
40788;BME280;26497;52.494;7.546;2023-02-15T02:56:02;102188.22;;;5.27;66.57
40788;BME280;26497;52.494;7.546;2023-02-15T02:58:38;102181.06;;;5.43;66.39
40788;BME280;26497;52.494;7.546;2023-02-15T03:01:12;102181.81;;;5.40;66.63
40788;BME280;26497;52.494;7.546;2023-02-15T03:03:47;102181.91;;;5.42;66.77
40788;BME280;26497;52.494;7.546;2023-02-15T03:06:20;102189.66;;;5.40;66.69
40788;BME280;26497;52.494;7.546;2023-02-15T03:09:01;102176.66;;;5.42;66.33
40788;BME280;26497;52.494;7.546;2023-02-15T03:11:31;102173.69;;;5.34;66.30
40788;BME280;26497;52.494;7.546;2023-02-15T03:13:59;102172.00;;;5.35;66.72
40788;BME280;26497;52.494;7.546;2023-02-15T03:16:26;102175.56;;;5.37;66.47
40788;BME280;26497;52.494;7.546;2023-02-15T03:18:59;102176.94;;;5.28;65.96
40788;BME280;26497;52.494;7.546;2023-02-15T03:21:34;102176.59;;;5.21;66.44
40788;BME280;26497;52.494;7.546;2023-02-15T03:24:08;102178.56;;;5.07;66.34
40788;BME280;26497;52.494;7.546;2023-02-15T03:26:38;102183.97;;;4.92;66.69
40788;BME280;26497;52.494;7.546;2023-02-15T03:29:07;102187.19;;;4.86;67.18
40788;BME280;26497;52.494;7.546;2023-02-15T03:31:40;102184.22;;;4.78;66.78
40788;BME280;26497;52.494;7.546;2023-02-15T03:34:12;102190.94;;;4.73;66.77
40788;BME280;26497;52.494;7.546;2023-02-15T03:36:44;102194.66;;;4.78;66.17
40788;BME280;26497;52.494;7.546;2023-02-15T03:39:18;102190.84;;;4.71;66.49
40788;BME280;26497;52.494;7.546;2023-02-15T03:41:55;102193.41;;;4.70;66.64
40788;BME280;26497;52.494;7.546;2023-02-15T03:44:28;102179.91;;;4.61;66.65
40788;BME280;26497;52.494;7.546;2023-02-15T03:47:02;102172.81;;;4.58;66.44
40788;BME280;26497;52.494;7.546;2023-02-15T03:49:38;102169.13;;;4.72;66.23
40788;BME280;26497;52.494;7.546;2023-02-15T03:52:09;102172.03;;;4.79;66.68
40788;BME280;26497;52.494;7.546;2023-02-15T03:54:38;102168.72;;;4.83;66.24
40788;BME280;26497;52.494;7.546;2023-02-15T03:57:13;102172.47;;;4.88;66.50
40788;BME280;26497;52.494;7.546;2023-02-15T03:59:58;102166.50;;;4.91;66.57
40788;BME280;26497;52.494;7.546;2023-02-15T04:03:10;102157.63;;;5.07;66.63
40788;BME280;26497;52.494;7.546;2023-02-15T04:05:41;102161.22;;;5.09;67.56
40788;BME280;26497;52.494;7.546;2023-02-15T04:08:09;102164.50;;;5.23;68.54
40788;BME280;26497;52.494;7.546;2023-02-15T04:10:37;102159.31;;;5.44;68.30
40788;BME280;26497;52.494;7.546;2023-02-15T04:13:19;102163.22;;;5.54;68.29
40788;BME280;26497;52.494;7.546;2023-02-15T04:15:46;102164.28;;;5.38;68.78
40788;BME280;26497;52.494;7.546;2023-02-15T04:18:32;102166.56;;;5.30;69.24
40788;BME280;26497;52.494;7.546;2023-02-15T04:21:19;102167.44;;;5.30;68.44
40788;BME280;26497;52.494;7.546;2023-02-15T04:24:05;102169.59;;;5.20;67.54
40788;BME280;26497;52.494;7.546;2023-02-15T04:26:50;102165.47;;;5.07;67.56
40788;BME280;26497;52.494;7.546;2023-02-15T04:29:27;102160.66;;;4.96;67.56
40788;BME280;26497;52.494;7.546;2023-02-15T04:31:56;102159.00;;;4.98;67.69
40788;BME280;26497;52.494;7.546;2023-02-15T04:34:24;102165.19;;;5.00;68.03
40788;BME280;26497;52.494;7.546;2023-02-15T04:36:53;102161.63;;;4.98;67.67
40788;BME280;26497;52.494;7.546;2023-02-15T04:39:20;102158.94;;;4.97;67.84
40788;BME280;26497;52.494;7.546;2023-02-15T04:41:47;102158.03;;;4.96;67.53
40788;BME280;26497;52.494;7.546;2023-02-15T04:44:14;102161.19;;;4.89;67.74
40788;BME280;26497;52.494;7.546;2023-02-15T04:46:41;102159.63;;;4.93;67.46
40788;BME280;26497;52.494;7.546;2023-02-15T04:49:09;102154.97;;;5.05;67.24
40788;BME280;26497;52.494;7.546;2023-02-15T04:51:36;102157.28;;;4.99;67.42
40788;BME280;26497;52.494;7.546;2023-02-15T04:54:05;102153.06;;;4.83;66.76
40788;BME280;26497;52.494;7.546;2023-02-15T04:56:32;102151.13;;;4.79;66.75
40788;BME280;26497;52.494;7.546;2023-02-15T04:59:00;102150.91;;;4.74;67.11
40788;BME280;26497;52.494;7.546;2023-02-15T05:01:28;102156.06;;;4.72;67.19
40788;BME280;26497;52.494;7.546;2023-02-15T05:03:55;102145.59;;;4.91;66.95
40788;BME280;26497;52.494;7.546;2023-02-15T05:06:22;102149.47;;;4.99;66.89
40788;BME280;26497;52.494;7.546;2023-02-15T05:08:49;102152.16;;;4.82;66.65
40788;BME280;26497;52.494;7.546;2023-02-15T05:11:18;102151.63;;;4.90;66.42
40788;BME280;26497;52.494;7.546;2023-02-15T05:13:45;102143.13;;;4.94;66.09
40788;BME280;26497;52.494;7.546;2023-02-15T05:16:12;102141.22;;;4.91;66.06
40788;BME280;26497;52.494;7.546;2023-02-15T05:18:39;102141.09;;;4.88;66.36
40788;BME280;26497;52.494;7.546;2023-02-15T05:21:06;102137.31;;;4.81;66.07
40788;BME280;26497;52.494;7.546;2023-02-15T05:23:33;102134.25;;;4.72;65.98
40788;BME280;26497;52.494;7.546;2023-02-15T05:26:00;102134.75;;;4.83;65.79
40788;BME280;26497;52.494;7.546;2023-02-15T05:28:46;102125.38;;;5.06;65.39
40788;BME280;26497;52.494;7.546;2023-02-15T05:31:15;102131.59;;;4.90;65.24
40788;BME280;26497;52.494;7.546;2023-02-15T05:33:44;102132.63;;;4.74;65.45
40788;BME280;26497;52.494;7.546;2023-02-15T05:36:11;102126.81;;;4.62;65.57
40788;BME280;26497;52.494;7.546;2023-02-15T05:38:38;102119.59;;;4.56;65.58
40788;BME280;26497;52.494;7.546;2023-02-15T05:41:06;102116.81;;;4.53;65.59
40788;BME280;26497;52.494;7.546;2023-02-15T05:43:33;102121.81;;;4.48;65.96
40788;BME280;26497;52.494;7.546;2023-02-15T05:46:03;102107.78;;;4.46;65.72
40788;BME280;26497;52.494;7.546;2023-02-15T05:48:31;102123.63;;;4.31;66.01
40788;BME280;26497;52.494;7.546;2023-02-15T05:51:00;102116.47;;;4.27;66.36
40788;BME280;26497;52.494;7.546;2023-02-15T05:53:29;102113.84;;;4.27;66.65
40788;BME280;26497;52.494;7.546;2023-02-15T05:55:56;102108.69;;;4.28;66.35
40788;BME280;26497;52.494;7.546;2023-02-15T05:58:26;102104.81;;;4.38;66.47
40788;BME280;26497;52.494;7.546;2023-02-15T06:00:54;102106.66;;;4.41;65.77
40788;BME280;26497;52.494;7.546;2023-02-15T06:03:23;102095.25;;;4.39;65.86
40788;BME280;26497;52.494;7.546;2023-02-15T06:05:54;102100.13;;;4.31;65.97
40788;BME280;26497;52.494;7.546;2023-02-15T06:08:21;102092.47;;;4.36;65.69
40788;BME280;26497;52.494;7.546;2023-02-15T06:10:48;102100.31;;;4.36;66.01
40788;BME280;26497;52.494;7.546;2023-02-15T06:13:15;102101.28;;;4.38;65.97
40788;BME280;26497;52.494;7.546;2023-02-15T06:15:42;102094.38;;;4.38;66.41
40788;BME280;26497;52.494;7.546;2023-02-15T06:18:09;102095.25;;;4.39;66.20
40788;BME280;26497;52.494;7.546;2023-02-15T06:20:37;102095.19;;;4.37;65.89
40788;BME280;26497;52.494;7.546;2023-02-15T06:23:04;102096.81;;;4.35;65.56
40788;BME280;26497;52.494;7.546;2023-02-15T06:25:31;102098.31;;;4.30;65.45
40788;BME280;26497;52.494;7.546;2023-02-15T06:27:59;102098.03;;;4.24;65.31
40788;BME280;26497;52.494;7.546;2023-02-15T06:30:26;102106.59;;;4.21;65.37
40788;BME280;26497;52.494;7.546;2023-02-15T06:32:53;102106.06;;;4.10;65.85
40788;BME280;26497;52.494;7.546;2023-02-15T06:35:20;102095.03;;;3.98;65.94
40788;BME280;26497;52.494;7.546;2023-02-15T06:37:49;102091.28;;;3.93;66.11
40788;BME280;26497;52.494;7.546;2023-02-15T06:40:16;102098.44;;;3.97;66.30
40788;BME280;26497;52.494;7.546;2023-02-15T06:42:44;102094.97;;;3.96;66.17
40788;BME280;26497;52.494;7.546;2023-02-15T06:45:11;102100.91;;;3.94;66.62
40788;BME280;26497;52.494;7.546;2023-02-15T06:47:38;102108.00;;;3.96;66.08
40788;BME280;26497;52.494;7.546;2023-02-15T06:50:07;102102.78;;;3.96;66.54
40788;BME280;26497;52.494;7.546;2023-02-15T06:52:34;102107.31;;;4.01;66.46
40788;BME280;26497;52.494;7.546;2023-02-15T06:55:04;102106.44;;;4.00;67.03
40788;BME280;26497;52.494;7.546;2023-02-15T06:57:31;102103.00;;;4.01;66.22
40788;BME280;26497;52.494;7.546;2023-02-15T06:59:59;102100.91;;;3.94;66.53
40788;BME280;26497;52.494;7.546;2023-02-15T07:02:26;102098.75;;;4.03;67.05
40788;BME280;26497;52.494;7.546;2023-02-15T07:04:54;102099.63;;;4.04;66.65
40788;BME280;26497;52.494;7.546;2023-02-15T07:07:21;102105.63;;;4.01;67.35
40788;BME280;26497;52.494;7.546;2023-02-15T07:09:48;102109.09;;;4.02;66.94
40788;BME280;26497;52.494;7.546;2023-02-15T07:12:16;102104.44;;;4.12;66.88
40788;BME280;26497;52.494;7.546;2023-02-15T07:15:01;102105.72;;;4.21;66.76
40788;BME280;26497;52.494;7.546;2023-02-15T07:17:30;102103.91;;;4.20;67.47
40788;BME280;26497;52.494;7.546;2023-02-15T07:19:57;102104.06;;;4.23;68.16
40788;BME280;26497;52.494;7.546;2023-02-15T07:22:24;102096.81;;;4.35;68.81
40788;BME280;26497;52.494;7.546;2023-02-15T07:24:51;102090.59;;;4.51;68.81
40788;BME280;26497;52.494;7.546;2023-02-15T07:27:21;102086.72;;;4.61;68.84
40788;BME280;26497;52.494;7.546;2023-02-15T07:29:48;102096.06;;;4.76;68.96
40788;BME280;26497;52.494;7.546;2023-02-15T07:32:15;102092.94;;;4.83;68.92
40788;BME280;26497;52.494;7.546;2023-02-15T07:34:42;102091.66;;;4.93;69.01
40788;BME280;26497;52.494;7.546;2023-02-15T07:37:09;102081.81;;;5.07;69.47
40788;BME280;26497;52.494;7.546;2023-02-15T07:39:36;102082.56;;;5.24;69.28
40788;BME280;26497;52.494;7.546;2023-02-15T07:42:03;102081.28;;;5.35;69.23
40788;BME280;26497;52.494;7.546;2023-02-15T07:44:32;102073.25;;;5.50;68.83
40788;BME280;26497;52.494;7.546;2023-02-15T07:46:59;102064.13;;;5.61;68.90
40788;BME280;26497;52.494;7.546;2023-02-15T07:49:26;102075.81;;;5.70;68.66
40788;BME280;26497;52.494;7.546;2023-02-15T07:51:53;102069.50;;;5.65;68.93
40788;BME280;26497;52.494;7.546;2023-02-15T07:54:20;102062.47;;;5.64;69.45
40788;BME280;26497;52.494;7.546;2023-02-15T07:56:47;102067.69;;;5.64;69.65
40788;BME280;26497;52.494;7.546;2023-02-15T07:59:14;102060.72;;;5.64;69.92
40788;BME280;26497;52.494;7.546;2023-02-15T08:01:43;102060.38;;;5.76;70.13
40788;BME280;26497;52.494;7.546;2023-02-15T08:04:10;102063.28;;;5.84;70.28
40788;BME280;26497;52.494;7.546;2023-02-15T08:06:38;102063.25;;;5.82;70.16
40788;BME280;26497;52.494;7.546;2023-02-15T08:09:06;102059.34;;;5.94;69.81
40788;BME280;26497;52.494;7.546;2023-02-15T08:11:35;102056.06;;;5.99;70.19
40788;BME280;26497;52.494;7.546;2023-02-15T08:14:07;102051.59;;;6.18;69.94
40788;BME280;26497;52.494;7.546;2023-02-15T08:16:40;102050.78;;;6.19;69.86
40788;BME280;26497;52.494;7.546;2023-02-15T08:19:11;102055.16;;;5.99;70.45
40788;BME280;26497;52.494;7.546;2023-02-15T08:21:41;102042.00;;;6.18;70.58
40788;BME280;26497;52.494;7.546;2023-02-15T08:24:10;102043.53;;;6.34;70.46
40788;BME280;26497;52.494;7.546;2023-02-15T08:26:39;102037.81;;;6.45;70.44
40788;BME280;26497;52.494;7.546;2023-02-15T08:29:08;102038.28;;;6.57;70.67
40788;BME280;26497;52.494;7.546;2023-02-15T08:31:35;102051.91;;;6.48;71.07
40788;BME280;26497;52.494;7.546;2023-02-15T08:34:03;102040.00;;;6.57;71.30
40788;BME280;26497;52.494;7.546;2023-02-15T08:36:33;102037.59;;;6.63;72.04
40788;BME280;26497;52.494;7.546;2023-02-15T08:39:03;102034.72;;;6.79;72.02
40788;BME280;26497;52.494;7.546;2023-02-15T08:41:33;102021.03;;;6.88;72.47
40788;BME280;26497;52.494;7.546;2023-02-15T08:44:03;102026.31;;;7.13;72.51
40788;BME280;26497;52.494;7.546;2023-02-15T08:46:33;102021.06;;;7.13;72.41
40788;BME280;26497;52.494;7.546;2023-02-15T08:49:01;102018.19;;;7.31;73.02
40788;BME280;26497;52.494;7.546;2023-02-15T08:51:30;102020.50;;;7.47;72.67
40788;BME280;26497;52.494;7.546;2023-02-15T08:54:02;102019.91;;;7.56;72.58
40788;BME280;26497;52.494;7.546;2023-02-15T08:56:32;102020.41;;;7.72;72.92
40788;BME280;26497;52.494;7.546;2023-02-15T08:59:02;102019.88;;;7.82;72.57
40788;BME280;26497;52.494;7.546;2023-02-15T09:01:32;102012.16;;;7.87;72.43
40788;BME280;26497;52.494;7.546;2023-02-15T09:04:02;102019.28;;;8.18;72.45
40788;BME280;26497;52.494;7.546;2023-02-15T09:06:30;102009.94;;;8.28;72.44
40788;BME280;26497;52.494;7.546;2023-02-15T09:08:58;102017.41;;;8.14;72.23
40788;BME280;26497;52.494;7.546;2023-02-15T09:11:27;102009.47;;;7.85;72.12
40788;BME280;26497;52.494;7.546;2023-02-15T09:13:56;102013.34;;;7.69;73.08
40788;BME280;26497;52.494;7.546;2023-02-15T09:16:26;102009.88;;;7.70;73.70
40788;BME280;26497;52.494;7.546;2023-02-15T09:18:54;102000.06;;;7.92;74.24
40788;BME280;26497;52.494;7.546;2023-02-15T09:21:25;102002.97;;;8.30;73.95
40788;BME280;26497;52.494;7.546;2023-02-15T09:23:57;102010.31;;;8.40;73.71
40788;BME280;26497;52.494;7.546;2023-02-15T09:26:28;102005.19;;;8.45;73.43
40788;BME280;26497;52.494;7.546;2023-02-15T09:28:58;102007.22;;;8.84;75.91
40788;BME280;26497;52.494;7.546;2023-02-15T09:31:28;102002.84;;;9.86;79.24
40788;BME280;26497;52.494;7.546;2023-02-15T09:33:58;101991.13;;;10.96;80.88
40788;BME280;26497;52.494;7.546;2023-02-15T09:36:30;101994.28;;;11.76;77.24
40788;BME280;26497;52.494;7.546;2023-02-15T09:38:59;101992.34;;;12.21;76.70
40788;BME280;26497;52.494;7.546;2023-02-15T09:41:38;101983.34;;;12.09;68.12
40788;BME280;26497;52.494;7.546;2023-02-15T09:44:17;101986.78;;;12.72;68.28
40788;BME280;26497;52.494;7.546;2023-02-15T09:47:14;101981.66;;;12.87;63.76
40788;BME280;26497;52.494;7.546;2023-02-15T09:49:55;101986.16;;;12.93;64.92
40788;BME280;26497;52.494;7.546;2023-02-15T09:52:44;101971.47;;;13.26;69.89
40788;BME280;26497;52.494;7.546;2023-02-15T09:55:29;101971.91;;;13.74;65.67
40788;BME280;26497;52.494;7.546;2023-02-15T09:58:14;101970.25;;;13.92;68.68
40788;BME280;26497;52.494;7.546;2023-02-15T10:00:54;101985.22;;;13.80;60.87
40788;BME280;26497;52.494;7.546;2023-02-15T10:03:41;101974.03;;;14.34;59.32
40788;BME280;26497;52.494;7.546;2023-02-15T10:06:35;101976.50;;;14.01;54.16
40788;BME280;26497;52.494;7.546;2023-02-15T10:09:38;101985.41;;;14.14;55.08
40788;BME280;26497;52.494;7.546;2023-02-15T10:12:37;101972.53;;;14.98;53.89
40788;BME280;26497;52.494;7.546;2023-02-15T10:15:22;101977.84;;;15.15;49.91
40788;BME280;26497;52.494;7.546;2023-02-15T10:18:29;101977.88;;;15.25;52.28
40788;BME280;26497;52.494;7.546;2023-02-15T10:21:03;101977.84;;;15.36;47.92
40788;BME280;26497;52.494;7.546;2023-02-15T10:23:59;101973.31;;;16.35;49.99
40788;BME280;26497;52.494;7.546;2023-02-15T10:26:36;101967.63;;;17.12;48.53
40788;BME280;26497;52.494;7.546;2023-02-15T10:29:12;101969.06;;;17.54;41.88
40788;BME280;26497;52.494;7.546;2023-02-15T10:31:48;101965.97;;;17.96;40.97
40788;BME280;26497;52.494;7.546;2023-02-15T10:34:20;101966.22;;;17.75;40.23
40788;BME280;26497;52.494;7.546;2023-02-15T10:37:16;101976.16;;;17.57;40.18
40788;BME280;26497;52.494;7.546;2023-02-15T10:39:54;101963.63;;;17.64;39.54
40788;BME280;26497;52.494;7.546;2023-02-15T10:42:30;101979.34;;;17.95;39.33
40788;BME280;26497;52.494;7.546;2023-02-15T10:45:13;101970.31;;;18.10;39.24
40788;BME280;26497;52.494;7.546;2023-02-15T10:48:10;101970.44;;;18.74;38.93
40788;BME280;26497;52.494;7.546;2023-02-15T10:50:48;101964.47;;;18.53;37.34
40788;BME280;26497;52.494;7.546;2023-02-15T10:53:45;101963.00;;;18.95;37.47
40788;BME280;26497;52.494;7.546;2023-02-15T10:56:20;101960.38;;;18.90;37.06
40788;BME280;26497;52.494;7.546;2023-02-15T10:59:18;101947.09;;;18.20;37.29
40788;BME280;26497;52.494;7.546;2023-02-15T11:01:54;101953.50;;;18.02;38.65
40788;BME280;26497;52.494;7.546;2023-02-15T11:04:55;101953.94;;;18.42;38.09
40788;BME280;26497;52.494;7.546;2023-02-15T11:07:32;101949.59;;;18.99;37.55
40788;BME280;26497;52.494;7.546;2023-02-15T11:10:14;101940.34;;;18.60;38.55
40788;BME280;26497;52.494;7.546;2023-02-15T11:12:49;101950.81;;;18.74;37.30
40788;BME280;26497;52.494;7.546;2023-02-15T11:15:24;101948.00;;;18.84;37.61
40788;BME280;26497;52.494;7.546;2023-02-15T11:17:57;101944.78;;;18.59;36.99
40788;BME280;26497;52.494;7.546;2023-02-15T11:20:32;101940.41;;;18.55;37.41
40788;BME280;26497;52.494;7.546;2023-02-15T11:23:02;101929.63;;;18.63;37.71
40788;BME280;26497;52.494;7.546;2023-02-15T11:25:32;101933.19;;;17.87;39.00
40788;BME280;26497;52.494;7.546;2023-02-15T11:28:02;101932.91;;;18.13;38.49
40788;BME280;26497;52.494;7.546;2023-02-15T11:30:41;101931.53;;;18.53;37.78
40788;BME280;26497;52.494;7.546;2023-02-15T11:33:16;101926.81;;;18.02;38.34
40788;BME280;26497;52.494;7.546;2023-02-15T11:35:51;101930.78;;;17.60;39.09
40788;BME280;26497;52.494;7.546;2023-02-15T11:38:23;101917.38;;;17.68;39.18
40788;BME280;26497;52.494;7.546;2023-02-15T11:40:56;101918.97;;;17.84;39.81
40788;BME280;26497;52.494;7.546;2023-02-15T11:43:30;101917.59;;;18.27;38.96
40788;BME280;26497;52.494;7.546;2023-02-15T11:45:59;101912.81;;;18.54;38.75
40788;BME280;26497;52.494;7.546;2023-02-15T11:48:30;101913.22;;;18.88;37.63
40788;BME280;26497;52.494;7.546;2023-02-15T11:50:59;101907.72;;;19.00;36.91
40788;BME280;26497;52.494;7.546;2023-02-15T11:53:30;101902.75;;;18.72;37.38
40788;BME280;26497;52.494;7.546;2023-02-15T11:55:59;101899.28;;;17.93;38.95
40788;BME280;26497;52.494;7.546;2023-02-15T11:58:33;101894.06;;;17.87;39.77
40788;BME280;26497;52.494;7.546;2023-02-15T12:01:11;101888.22;;;17.48;39.15
40788;BME280;26497;52.494;7.546;2023-02-15T12:03:46;101885.69;;;17.35;39.79
40788;BME280;26497;52.494;7.546;2023-02-15T12:06:28;101878.50;;;17.42;39.90
40788;BME280;26497;52.494;7.546;2023-02-15T12:09:03;101875.47;;;16.75;41.21
40788;BME280;26497;52.494;7.546;2023-02-15T12:11:36;101874.19;;;17.30;40.88
40788;BME280;26497;52.494;7.546;2023-02-15T12:14:05;101868.47;;;17.66;39.64
40788;BME280;26497;52.494;7.546;2023-02-15T12:16:41;101873.91;;;17.57;39.93
40788;BME280;26497;52.494;7.546;2023-02-15T12:19:32;101862.78;;;17.95;39.21
40788;BME280;26497;52.494;7.546;2023-02-15T12:22:03;101867.66;;;18.36;38.64
40788;BME280;26497;52.494;7.546;2023-02-15T12:24:34;101861.16;;;18.55;38.22
40788;BME280;26497;52.494;7.546;2023-02-15T12:27:13;101865.06;;;18.91;37.11
40788;BME280;26497;52.494;7.546;2023-02-15T12:29:44;101862.41;;;18.91;36.31
40788;BME280;26497;52.494;7.546;2023-02-15T12:32:19;101855.03;;;18.49;37.04
40788;BME280;26497;52.494;7.546;2023-02-15T12:34:46;101848.97;;;18.97;37.31
40788;BME280;26497;52.494;7.546;2023-02-15T12:37:19;101848.00;;;19.50;36.07
40788;BME280;26497;52.494;7.546;2023-02-15T12:39:54;101844.66;;;19.38;36.21
40788;BME280;26497;52.494;7.546;2023-02-15T12:42:23;101844.25;;;19.62;36.02
40788;BME280;26497;52.494;7.546;2023-02-15T12:44:58;101848.75;;;19.58;36.72
40788;BME280;26497;52.494;7.546;2023-02-15T12:47:26;101841.00;;;19.42;36.61
40788;BME280;26497;52.494;7.546;2023-02-15T12:50:15;101838.31;;;19.44;35.52
40788;BME280;26497;52.494;7.546;2023-02-15T12:52:48;101836.50;;;19.46;36.36
40788;BME280;26497;52.494;7.546;2023-02-15T12:55:23;101836.03;;;19.71;35.76
40788;BME280;26497;52.494;7.546;2023-02-15T12:58:07;101835.19;;;19.69;36.05
40788;BME280;26497;52.494;7.546;2023-02-15T13:00:34;101833.31;;;19.72;35.60
40788;BME280;26497;52.494;7.546;2023-02-15T13:03:03;101834.88;;;19.84;35.58
40788;BME280;26497;52.494;7.546;2023-02-15T13:05:36;101840.16;;;19.42;35.80
40788;BME280;26497;52.494;7.546;2023-02-15T13:08:12;101841.75;;;19.02;36.25
40788;BME280;26497;52.494;7.546;2023-02-15T13:10:51;101829.75;;;19.25;36.46
40788;BME280;26497;52.494;7.546;2023-02-15T13:13:21;101822.16;;;19.50;36.67
40788;BME280;26497;52.494;7.546;2023-02-15T13:15:53;101821.81;;;19.67;35.78
40788;BME280;26497;52.494;7.546;2023-02-15T13:18:30;101823.44;;;19.74;35.52
40788;BME280;26497;52.494;7.546;2023-02-15T13:21:06;101816.84;;;19.94;35.90
40788;BME280;26497;52.494;7.546;2023-02-15T13:23:39;101816.72;;;20.40;34.68
40788;BME280;26497;52.494;7.546;2023-02-15T13:26:16;101804.69;;;20.58;34.35
40788;BME280;26497;52.494;7.546;2023-02-15T13:28:47;101800.75;;;21.09;34.07
40788;BME280;26497;52.494;7.546;2023-02-15T13:31:17;101806.53;;;21.27;33.46
40788;BME280;26497;52.494;7.546;2023-02-15T13:33:49;101799.78;;;21.12;33.46